createdAt,value
2024-05-09T00:00:41.195Z,51.75
2024-05-09T00:03:11.077Z,51.88
2024-05-09T00:05:43.679Z,51.70
2024-05-09T00:08:11.615Z,51.38
2024-05-09T00:10:40.528Z,51.35
2024-05-09T00:13:09.113Z,51.45
2024-05-09T00:15:37.096Z,51.68
2024-05-09T00:18:05.780Z,51.90
2024-05-09T00:20:38.765Z,52.11
2024-05-09T00:23:10.248Z,52.33
2024-05-09T00:25:37.894Z,52.70
2024-05-09T00:28:05.987Z,52.95
2024-05-09T00:30:36.099Z,53.44
2024-05-09T00:33:06.415Z,54.02
2024-05-09T00:35:35.094Z,54.73
2024-05-09T00:38:02.627Z,55.46
2024-05-09T00:40:40.562Z,56.35
2024-05-09T00:43:14.507Z,56.99
2024-05-09T00:45:42.985Z,57.83
2024-05-09T00:48:14.065Z,58.70
2024-05-09T00:50:44.094Z,59.77
2024-05-09T00:53:11.999Z,60.62
2024-05-09T00:55:39.607Z,61.28
2024-05-09T00:58:07.625Z,61.60
2024-05-09T01:00:39.343Z,61.67
2024-05-09T01:03:10.909Z,62.13
2024-05-09T01:05:40.608Z,62.48
2024-05-09T01:08:08.416Z,63.07
2024-05-09T01:10:36.838Z,63.69
2024-05-09T01:13:04.857Z,64.22
2024-05-09T01:15:32.879Z,64.70
2024-05-09T01:18:11.016Z,65.09
2024-05-09T01:20:42.832Z,65.66
2024-05-09T01:23:13.951Z,65.79
2024-05-09T01:25:43.504Z,66.42
2024-05-09T01:28:11.032Z,67.11
2024-05-09T01:30:38.820Z,67.26
2024-05-09T01:33:07.974Z,67.54
2024-05-09T01:35:37.247Z,68.10
2024-05-09T01:38:05.007Z,68.60
2024-05-09T01:40:37.864Z,69.17
2024-05-09T01:43:11.531Z,69.88
2024-05-09T01:45:42.549Z,70.32
2024-05-09T01:48:10.761Z,70.99
2024-05-09T01:50:41.677Z,71.14
2024-05-09T01:53:11.383Z,71.57
2024-05-09T01:55:39.150Z,71.90
2024-05-09T01:58:07.061Z,72.07
2024-05-09T02:00:39.746Z,72.25
2024-05-09T02:03:11.534Z,72.53
2024-05-09T02:05:42.170Z,72.68
2024-05-09T02:08:13.039Z,72.92
2024-05-09T02:10:40.462Z,72.77
2024-05-09T02:13:07.981Z,73.01
2024-05-09T02:15:35.363Z,73.07
2024-05-09T02:18:02.846Z,72.95
2024-05-09T02:20:35.885Z,72.88
2024-05-09T02:23:06.005Z,72.99
2024-05-09T02:25:33.833Z,72.96
2024-05-09T02:28:01.198Z,72.76
2024-05-09T02:32:59.599Z,72.34
2024-05-09T02:35:27.032Z,71.92
2024-05-09T02:37:54.495Z,71.50
2024-05-09T02:40:29.087Z,71.36
2024-05-09T02:43:03.661Z,70.82
2024-05-09T02:45:31.020Z,70.25
2024-05-09T02:47:58.835Z,69.91
2024-05-09T02:50:34.257Z,69.51
2024-05-09T02:53:09.927Z,68.96
2024-05-09T02:55:38.226Z,68.87
2024-05-09T02:58:08.920Z,68.48
2024-05-09T03:00:39.931Z,68.35
2024-05-09T03:03:14.457Z,68.16
2024-05-09T03:05:44.284Z,68.05
2024-05-09T03:08:12.186Z,67.95
2024-05-09T03:10:40.007Z,68.03
2024-05-09T03:13:08.260Z,67.96
2024-05-09T03:15:35.757Z,68.06
2024-05-09T03:18:03.795Z,68.04
2024-05-09T03:20:34.853Z,67.98
2024-05-09T03:23:04.984Z,67.93
2024-05-09T03:25:33.033Z,67.84
2024-05-09T03:28:00.351Z,67.70
2024-05-09T03:30:38.382Z,67.63
2024-05-09T03:33:10.980Z,67.86
2024-05-09T03:35:38.776Z,67.91
2024-05-09T03:38:06.123Z,67.70
2024-05-09T03:40:33.514Z,67.30
2024-05-09T03:43:00.853Z,66.72
2024-05-09T03:45:28.134Z,66.44
2024-05-09T03:47:55.881Z,66.17
2024-05-09T03:50:30.076Z,65.96
2024-05-09T03:53:02.095Z,65.94
2024-05-09T03:55:29.769Z,65.72
2024-05-09T03:57:57.130Z,65.49
2024-05-09T04:00:31.386Z,64.96
2024-05-09T04:03:10.786Z,64.47
2024-05-09T04:05:41.458Z,63.34
2024-05-09T04:08:10.259Z,62.45
2024-05-09T04:10:38.058Z,61.22
2024-05-09T04:13:05.578Z,59.75
2024-05-09T04:15:33.092Z,58.43
2024-05-09T04:18:01.291Z,57.67
2024-05-09T04:20:37.296Z,56.35
2024-05-09T04:23:10.125Z,53.91
2024-05-09T04:25:37.860Z,52.90
2024-05-09T04:28:05.815Z,51.83
2024-05-09T04:30:38.342Z,50.46
2024-05-09T04:33:10.307Z,49.47
2024-05-09T04:35:41.644Z,49.16
2024-05-09T04:38:09.085Z,48.77
2024-05-09T04:40:37.519Z,48.85
2024-05-09T04:43:06.224Z,47.83
2024-05-09T04:45:33.860Z,47.38
2024-05-09T04:48:01.805Z,46.92
2024-05-09T04:50:36.113Z,46.70
2024-05-09T04:53:08.227Z,46.49
2024-05-09T04:55:37.328Z,46.78
2024-05-09T04:58:06.711Z,47.46
2024-05-09T05:00:37.054Z,47.27
2024-05-09T05:03:12.776Z,47.31
2024-05-09T05:05:43.710Z,47.14
2024-05-09T05:08:16.444Z,46.56
2024-05-09T05:10:44.779Z,46.18
2024-05-09T05:13:24.901Z,45.83
2024-05-09T05:15:57.430Z,45.04
2024-05-09T05:18:26.845Z,45.18
2024-05-09T05:20:55.267Z,45.10
2024-05-09T05:23:23.120Z,44.92
2024-05-09T05:25:52.521Z,45.01
2024-05-09T05:28:20.261Z,44.67
2024-05-09T05:30:47.642Z,44.46
2024-05-09T05:33:16.097Z,44.25
2024-05-09T05:35:43.891Z,44.09
2024-05-09T05:38:11.578Z,43.47
2024-05-09T05:40:40.170Z,42.89
2024-05-09T05:43:09.597Z,42.85
2024-05-09T05:45:37.599Z,42.99
2024-05-09T05:48:06.537Z,42.87
2024-05-09T05:50:37.027Z,42.69
2024-05-09T05:53:06.800Z,42.56
2024-05-09T05:55:34.465Z,42.28
2024-05-09T05:58:02.342Z,41.67
2024-05-09T06:00:37.415Z,41.51
2024-05-09T06:03:12.757Z,41.28
2024-05-09T06:05:43.213Z,41.04
2024-05-09T06:08:10.875Z,41.00
2024-05-09T06:10:40.409Z,40.96
2024-05-09T06:13:12.163Z,40.69
2024-05-09T06:15:40.170Z,40.50
2024-05-09T06:18:08.748Z,40.40
2024-05-09T06:20:38.208Z,40.05
2024-05-09T06:23:06.491Z,40.16
2024-05-09T06:25:35.449Z,40.03
2024-05-09T06:28:03.283Z,39.96
2024-05-09T06:30:38.629Z,40.19
2024-05-09T06:33:10.222Z,40.22
2024-05-09T06:35:39.012Z,40.06
2024-05-09T06:38:08.628Z,39.88
2024-05-09T06:40:38.901Z,39.43
2024-05-09T06:43:14.724Z,39.48
2024-05-09T06:45:43.187Z,39.79
2024-05-09T06:48:11.262Z,39.84
2024-05-09T06:50:40.063Z,39.93
2024-05-09T06:53:08.402Z,39.61
2024-05-09T06:55:36.476Z,39.65
2024-05-09T06:58:05.341Z,39.59
2024-05-09T07:00:38.828Z,38.94
2024-05-09T07:03:09.266Z,38.64
2024-05-09T07:05:37.287Z,38.70
2024-05-09T07:08:05.089Z,39.19
2024-05-09T07:10:35.493Z,39.16
2024-05-09T07:13:08.677Z,39.21
2024-05-09T07:15:35.976Z,39.20
2024-05-09T07:18:12.959Z,39.02
2024-05-09T07:20:40.901Z,38.61
2024-05-09T07:23:11.872Z,38.62
2024-05-09T07:25:40.113Z,38.55
2024-05-09T07:28:15.169Z,38.07
2024-05-09T07:30:43.035Z,37.76
2024-05-09T07:33:19.799Z,37.61
2024-05-09T07:35:48.166Z,37.88
2024-05-09T07:38:15.542Z,38.00
2024-05-09T07:40:42.974Z,38.31
2024-05-09T07:43:13.991Z,38.11
2024-05-09T07:45:50.653Z,38.13
2024-05-09T07:52:37.889Z,37.73
2024-05-09T07:53:46.024Z,37.67
2024-05-09T07:56:17.739Z,37.74
2024-05-09T07:58:45.586Z,38.15
2024-05-09T08:01:13.043Z,38.33
2024-05-09T08:03:40.661Z,38.39
2024-05-09T08:06:08.148Z,38.43
2024-05-09T08:08:35.503Z,38.42
2024-05-09T08:11:03.214Z,38.49
2024-05-09T08:13:30.604Z,38.50
2024-05-09T08:15:57.984Z,38.33
2024-05-09T08:18:25.473Z,38.32
2024-05-09T08:20:52.953Z,38.31
2024-05-09T08:23:20.379Z,38.41
2024-05-09T08:25:47.966Z,38.32
2024-05-09T08:28:16.381Z,38.46
2024-05-09T08:30:44.306Z,38.54
2024-05-09T08:33:11.895Z,38.31
2024-05-09T08:35:39.313Z,38.22
2024-05-09T08:38:17.131Z,38.57
2024-05-09T08:40:44.681Z,38.44
2024-05-09T08:43:13.073Z,38.37
2024-05-09T08:45:43.980Z,38.30
2024-05-09T08:48:14.722Z,37.59
2024-05-09T08:50:43.635Z,37.65
2024-05-09T08:53:11.344Z,37.79
2024-05-09T08:55:41.801Z,37.94
2024-05-09T08:58:13.855Z,38.23
2024-05-09T09:00:42.104Z,38.20
2024-05-09T09:03:09.821Z,37.90
2024-05-09T09:05:38.595Z,37.78
2024-05-09T09:08:07.542Z,38.00
2024-05-09T09:10:35.099Z,38.02
2024-05-09T09:13:09.396Z,37.98
2024-05-09T09:15:47.839Z,37.89
2024-05-09T09:18:15.618Z,37.56
2024-05-09T09:20:43.764Z,37.64
2024-05-09T09:23:11.235Z,37.55
2024-05-09T09:25:42.252Z,37.42
2024-05-09T09:28:09.998Z,37.65
2024-05-09T09:30:41.330Z,37.61
2024-05-09T09:33:09.322Z,37.51
2024-05-09T09:35:39.084Z,37.23
2024-05-09T09:38:06.956Z,37.39
2024-05-09T09:40:38.943Z,36.97
2024-05-09T09:43:42.786Z,37.06
2024-05-09T09:46:12.587Z,37.39
2024-05-09T09:48:40.629Z,37.65
2024-05-09T09:51:08.135Z,37.77
2024-05-09T09:53:35.534Z,38.09
2024-05-09T09:56:02.816Z,38.03
2024-05-09T09:58:30.326Z,37.96
2024-05-09T10:00:57.917Z,38.01
2024-05-09T10:03:25.845Z,38.11
2024-05-09T10:05:53.364Z,38.26
2024-05-09T10:08:22.007Z,38.35
2024-05-09T10:10:49.708Z,38.47
2024-05-09T10:13:17.798Z,38.33
2024-05-09T10:15:52.227Z,38.04
2024-05-09T10:18:27.133Z,37.89
2024-05-09T10:20:56.723Z,38.14
2024-05-09T10:23:24.737Z,37.71
2024-05-09T10:26:10.274Z,37.59
2024-05-09T10:28:42.193Z,38.00
2024-05-09T10:31:13.902Z,38.50
2024-05-09T10:33:51.927Z,38.45
2024-05-09T10:36:24.073Z,38.57
2024-05-09T10:38:52.489Z,38.31
2024-05-09T10:41:20.339Z,37.92
2024-05-09T10:43:47.796Z,37.84
2024-05-09T10:46:15.602Z,37.58
2024-05-09T10:48:43.462Z,36.78
2024-05-09T10:51:11.301Z,35.90
2024-05-09T10:53:42.416Z,34.95
2024-05-09T10:56:09.932Z,34.39
2024-05-09T10:58:37.370Z,34.10
2024-05-09T11:01:07.023Z,33.82
2024-05-09T11:03:35.481Z,33.09
2024-05-09T11:06:03.314Z,32.78
2024-05-09T11:08:31.335Z,32.80
2024-05-09T11:10:59.599Z,33.22
2024-05-09T11:13:28.501Z,33.85
2024-05-09T11:15:55.957Z,34.20
2024-05-09T11:18:25.608Z,34.33
2024-05-09T11:20:54.634Z,34.41
2024-05-09T11:23:22.951Z,34.33
2024-05-09T11:25:54.397Z,34.61
2024-05-09T11:28:21.946Z,34.82
2024-05-09T11:30:50.081Z,34.79
2024-05-09T11:33:18.794Z,34.56
2024-05-09T11:35:46.541Z,34.52
2024-05-09T11:38:13.872Z,34.74
2024-05-09T11:40:42.248Z,34.78
2024-05-09T11:43:09.725Z,34.80
2024-05-09T11:45:37.133Z,34.83
2024-05-09T11:48:04.823Z,34.63
2024-05-09T11:50:35.574Z,34.51
2024-05-09T11:53:03.594Z,34.62
2024-05-09T11:55:31.101Z,34.58
2024-05-09T11:57:58.572Z,34.56
2024-05-09T12:00:33.968Z,34.41
2024-05-09T12:03:05.850Z,34.52
2024-05-09T12:05:34.392Z,34.31
2024-05-09T12:08:02.363Z,33.95
2024-05-09T12:10:33.859Z,34.03
2024-05-09T12:13:05.364Z,34.01
2024-05-09T12:15:36.262Z,34.11
2024-05-09T12:18:05.033Z,34.15
2024-05-09T12:20:37.372Z,34.27
2024-05-09T12:23:09.394Z,34.15
2024-05-09T12:25:38.272Z,33.99
2024-05-09T12:28:06.339Z,33.87
2024-05-09T12:30:38.311Z,33.55
2024-05-09T12:33:09.265Z,33.40
2024-05-09T12:35:37.466Z,33.26
2024-05-09T12:38:05.130Z,33.23
2024-05-09T12:40:36.834Z,33.17
2024-05-09T12:43:07.901Z,33.10
2024-05-09T12:45:36.262Z,32.99
2024-05-09T12:48:06.891Z,32.91
2024-05-09T12:50:35.090Z,32.81
2024-05-09T12:53:03.796Z,32.99
2024-05-09T12:55:40.520Z,32.89
2024-05-09T12:58:18.391Z,32.55
2024-05-09T13:00:46.379Z,32.51
2024-05-09T13:03:14.309Z,32.62
2024-05-09T13:05:44.613Z,32.64
2024-05-09T13:08:12.874Z,32.73
2024-05-09T13:10:40.292Z,32.62
2024-05-09T13:13:09.605Z,32.55
2024-05-09T13:15:37.381Z,32.59
2024-05-09T13:18:05.875Z,32.38
2024-05-09T13:20:35.485Z,32.27
2024-05-09T13:23:04.820Z,32.11
2024-05-09T13:25:34.295Z,31.73
2024-05-09T13:28:02.452Z,31.51
2024-05-09T13:30:38.526Z,31.52
2024-05-09T13:33:10.669Z,31.33
2024-05-09T13:35:39.814Z,31.47
2024-05-09T13:38:08.000Z,31.66
2024-05-09T13:40:36.578Z,31.18
2024-05-09T13:43:05.482Z,31.00
2024-05-09T13:45:33.886Z,31.08
2024-05-09T13:48:02.629Z,31.15
2024-05-09T13:50:34.532Z,31.23
2024-05-09T13:53:06.325Z,30.74
2024-05-09T13:55:36.847Z,30.27
2024-05-09T13:58:04.907Z,30.26
2024-05-09T14:00:42.872Z,30.16
2024-05-09T14:03:16.349Z,30.13
2024-05-09T14:05:45.543Z,30.50
2024-05-09T14:08:15.123Z,30.61
2024-05-09T14:10:45.034Z,30.43
2024-05-09T14:13:13.727Z,30.44
2024-05-09T14:15:41.522Z,30.32
2024-05-09T14:18:12.593Z,30.16
2024-05-09T14:20:41.977Z,30.13
2024-05-09T14:23:09.748Z,30.00
2024-05-09T14:25:41.837Z,30.12
2024-05-09T14:28:11.564Z,29.55
2024-05-09T14:30:39.904Z,29.40
2024-05-09T14:33:08.436Z,29.31
2024-05-09T14:35:39.473Z,29.16
2024-05-09T14:38:07.723Z,29.06
2024-05-09T14:40:41.374Z,29.16
2024-05-09T14:43:12.395Z,29.11
2024-05-09T14:45:40.597Z,28.89
2024-05-09T14:48:08.469Z,28.77
2024-05-09T14:50:39.031Z,28.72
2024-05-09T14:53:08.763Z,28.53
2024-05-09T14:55:37.647Z,28.47
2024-05-09T14:58:06.874Z,28.46
2024-05-09T15:00:39.191Z,28.06
2024-05-09T15:03:08.833Z,27.95
2024-05-09T15:05:36.473Z,27.86
2024-05-09T15:08:07.970Z,28.06
2024-05-09T15:10:37.089Z,27.99
2024-05-09T15:13:06.604Z,28.05
2024-05-09T15:15:35.667Z,27.52
2024-05-09T15:18:06.402Z,27.22
2024-05-09T15:20:36.792Z,27.36
2024-05-09T15:23:06.078Z,27.34
2024-05-09T15:25:34.557Z,27.39
2024-05-09T15:28:02.889Z,27.41
2024-05-09T15:30:32.987Z,27.39
2024-05-09T15:33:05.757Z,27.42
2024-05-09T15:35:34.758Z,27.66
2024-05-09T15:38:03.348Z,27.48
2024-05-09T15:40:37.920Z,27.45
2024-05-09T15:43:09.575Z,27.53
2024-05-09T15:45:39.545Z,27.64
2024-05-09T15:48:08.252Z,27.49
2024-05-09T15:50:39.935Z,27.49
2024-05-09T15:53:10.786Z,27.93
2024-05-09T15:55:42.376Z,27.91
2024-05-09T15:58:10.295Z,27.62
2024-05-09T16:00:41.597Z,27.63
2024-05-09T16:03:12.619Z,27.58
2024-05-09T16:05:45.731Z,27.75
2024-05-09T16:08:14.346Z,27.92
2024-05-09T16:10:48.105Z,27.93
2024-05-09T16:13:16.470Z,27.96
2024-05-09T16:15:47.878Z,27.87
2024-05-09T16:18:15.643Z,27.84
2024-05-09T16:20:44.879Z,27.81
2024-05-09T16:23:13.891Z,27.70
2024-05-09T16:25:46.147Z,27.73
2024-05-09T16:28:13.992Z,27.86
2024-05-09T16:30:41.760Z,27.90
2024-05-09T16:33:11.041Z,27.97
2024-05-09T16:35:39.305Z,27.71
2024-05-09T16:38:06.954Z,27.59
2024-05-09T16:40:38.907Z,27.74
2024-05-09T16:43:12.738Z,27.75
2024-05-09T16:45:41.271Z,27.49
2024-05-09T16:48:08.982Z,27.23
2024-05-09T16:50:36.892Z,27.10
2024-05-09T16:53:05.746Z,27.06
2024-05-09T16:55:34.416Z,27.23
2024-05-09T16:58:02.331Z,27.34
2024-05-09T17:00:39.194Z,27.42
2024-05-09T17:03:12.710Z,27.48
2024-05-09T17:05:41.912Z,27.55
2024-05-09T17:08:09.968Z,27.70
2024-05-09T17:10:37.512Z,27.62
2024-05-09T17:13:06.892Z,27.62
2024-05-09T17:15:36.890Z,27.66
2024-05-09T17:18:06.161Z,27.68
2024-05-09T17:20:36.298Z,28.04
2024-05-09T17:23:12.146Z,28.01
2024-05-09T17:25:39.838Z,28.05
2024-05-09T17:28:08.303Z,28.06
2024-05-09T17:30:39.041Z,27.97
2024-05-09T17:33:09.403Z,28.02
2024-05-09T17:35:37.911Z,28.00
2024-05-09T17:38:05.966Z,28.10
2024-05-09T17:40:36.440Z,28.14
2024-05-09T17:43:06.803Z,28.09
2024-05-09T17:45:37.525Z,28.17
2024-05-09T17:48:05.936Z,28.29
2024-05-09T17:50:36.165Z,28.16
2024-05-09T17:53:05.797Z,28.35
2024-05-09T17:55:33.748Z,28.33
2024-05-09T17:58:01.647Z,28.23
2024-05-09T18:00:37.222Z,28.34
2024-05-09T18:03:08.650Z,28.37
2024-05-09T18:05:37.281Z,28.29
2024-05-09T18:08:08.591Z,28.29
2024-05-09T18:10:38.947Z,28.33
2024-05-09T18:13:08.235Z,28.23
2024-05-09T18:15:36.229Z,28.26
2024-05-09T18:18:04.426Z,28.20
2024-05-09T18:20:40.492Z,28.24
2024-05-09T18:23:13.263Z,28.31
2024-05-09T18:25:41.279Z,28.18
2024-05-09T18:28:08.939Z,28.12
2024-05-09T18:30:37.503Z,28.19
2024-05-09T18:33:09.899Z,28.27
2024-05-09T18:35:37.581Z,28.21
2024-05-09T18:38:05.739Z,28.11
2024-05-09T18:40:36.384Z,28.20
2024-05-09T18:43:07.372Z,28.13
2024-05-09T18:45:39.805Z,28.13
2024-05-09T18:48:08.948Z,28.24
2024-05-09T18:50:39.630Z,28.27
2024-05-09T18:53:09.963Z,28.25
2024-05-09T18:55:37.633Z,28.41
2024-05-09T18:58:05.276Z,28.48
2024-05-09T19:00:36.589Z,28.51
2024-05-09T19:03:09.247Z,28.53
2024-05-09T19:05:39.396Z,28.59
2024-05-09T19:08:07.893Z,28.58
2024-05-09T19:10:36.918Z,28.55
2024-05-09T19:13:09.076Z,28.58
2024-05-09T19:15:40.037Z,28.51
2024-05-09T19:18:08.110Z,28.41
2024-05-09T19:20:36.863Z,28.32
2024-05-09T19:23:05.399Z,27.81
2024-05-09T19:25:33.027Z,27.84
2024-05-09T19:28:00.896Z,27.89
2024-05-09T19:30:37.933Z,27.76
2024-05-09T19:33:09.852Z,27.69
2024-05-09T19:35:38.374Z,27.88
2024-05-09T19:38:05.723Z,27.80
2024-05-09T19:40:34.595Z,27.77
2024-05-09T19:43:04.597Z,27.78
2024-05-09T19:45:33.734Z,27.60
2024-05-09T19:48:02.121Z,27.68
2024-05-09T19:50:37.345Z,27.84
2024-05-09T19:53:10.392Z,27.83
2024-05-09T19:55:38.327Z,27.87
2024-05-09T19:58:06.830Z,28.01
2024-05-09T20:00:37.038Z,28.08
2024-05-09T20:03:06.899Z,28.13
2024-05-09T20:05:34.501Z,28.15
2024-05-09T20:08:02.099Z,28.29
2024-05-09T20:10:32.386Z,28.36
2024-05-09T20:13:02.439Z,28.51
2024-05-09T20:15:31.253Z,28.58
2024-05-09T20:17:58.837Z,28.87
2024-05-09T20:20:35.011Z,29.20
2024-05-09T20:23:06.200Z,29.28
2024-05-09T20:25:33.638Z,29.38
2024-05-09T20:28:01.026Z,29.53
2024-05-09T20:30:32.448Z,29.63
2024-05-09T20:33:02.520Z,29.85
2024-05-09T20:35:31.704Z,30.24
2024-05-09T20:37:59.245Z,30.42
2024-05-09T20:40:32.603Z,30.67
2024-05-09T20:43:03.629Z,30.83
2024-05-09T20:45:31.123Z,31.01
2024-05-09T20:47:58.574Z,31.16
2024-05-09T20:50:36.125Z,31.34
2024-05-09T20:53:08.741Z,31.37
2024-05-09T20:55:36.596Z,31.54
2024-05-09T20:58:04.503Z,31.71
2024-05-09T21:00:39.739Z,31.99
2024-05-09T21:03:11.062Z,32.10
2024-05-09T21:05:39.472Z,32.28
2024-05-09T21:08:07.392Z,32.41
2024-05-09T21:10:36.117Z,32.63
2024-05-09T21:13:04.574Z,32.92
2024-05-09T21:15:32.361Z,33.04
2024-05-09T21:17:59.871Z,33.14
2024-05-09T21:20:31.395Z,33.45
2024-05-09T21:23:03.621Z,33.71
2024-05-09T21:25:31.503Z,33.95
2024-05-09T21:27:58.954Z,34.13
2024-05-09T21:30:36.900Z,34.25
2024-05-09T21:33:09.294Z,34.51
2024-05-09T21:35:37.786Z,34.66
2024-05-09T21:38:05.586Z,34.79
2024-05-09T21:40:35.319Z,35.05
2024-05-09T21:43:05.268Z,35.16
2024-05-09T21:45:33.575Z,35.27
2024-05-09T21:48:03.400Z,35.40
2024-05-09T21:50:37.118Z,35.55
2024-05-09T21:53:08.128Z,35.69
2024-05-09T21:55:35.602Z,35.92
2024-05-09T21:58:03.498Z,36.04
2024-05-09T22:00:36.760Z,35.96
2024-05-09T22:03:07.069Z,35.97
2024-05-09T22:05:35.205Z,36.10
2024-05-09T22:08:03.050Z,36.24
2024-05-09T22:10:34.567Z,36.24
2024-05-09T22:13:07.265Z,36.28
2024-05-09T22:15:35.692Z,36.42
2024-05-09T22:18:04.335Z,36.53
2024-05-09T22:20:37.178Z,36.74
2024-05-09T22:23:07.530Z,36.97
2024-05-09T22:25:35.556Z,37.00
2024-05-09T22:28:03.335Z,37.05
2024-05-09T22:30:37.029Z,37.24
2024-05-09T22:33:07.877Z,37.22
2024-05-09T22:35:35.725Z,37.26
2024-05-09T22:38:03.383Z,37.36
2024-05-09T22:40:39.140Z,37.43
2024-05-09T22:43:17.140Z,37.62
2024-05-09T22:45:44.831Z,37.94
2024-05-09T22:48:12.595Z,38.10
2024-05-09T22:50:40.576Z,38.19
2024-05-09T22:53:07.901Z,38.14
2024-05-09T22:55:35.183Z,38.34
2024-05-09T22:58:02.755Z,38.36
2024-05-09T23:00:32.208Z,38.53
2024-05-09T23:03:00.724Z,38.74
2024-05-09T23:05:28.461Z,39.07
2024-05-09T23:07:56.037Z,39.16
2024-05-09T23:10:31.143Z,39.12
2024-05-09T23:13:03.340Z,39.27
2024-05-09T23:15:30.940Z,39.36
2024-05-09T23:17:58.771Z,39.42
2024-05-09T23:20:33.947Z,39.53
2024-05-09T23:23:09.773Z,39.64
2024-05-09T23:25:38.290Z,39.86
2024-05-09T23:28:06.244Z,40.06
2024-05-09T23:30:38.345Z,40.17
2024-05-09T23:33:09.713Z,40.27
2024-05-09T23:35:37.779Z,40.36
2024-05-09T23:38:05.119Z,40.13
2024-05-09T23:43:03.004Z,40.65
2024-05-09T23:45:30.790Z,40.91
2024-05-09T23:47:58.303Z,41.12
2024-05-09T23:50:33.597Z,41.10
2024-05-09T23:53:04.417Z,41.32
2024-05-09T23:55:32.471Z,41.36
2024-05-09T23:58:00.452Z,41.53
